ADDS METAR Data INFO
IDs: Format: Raw Decoded Include TAF

Data at: 2238 UTC 22 Aug 2017

KGEY 222153Z AUTO 15006KT 10SM CLR 32/M01 A3009 RMK AO2 SLP152 T03221011
KGEY 222053Z AUTO 13003KT 10SM CLR 31/M01 A3011 RMK AO2 SLP161 T03111006
KGEY 221953Z AUTO 19007KT 29/01 A3015 RMK AO2 SLP172 T02940011 $
KGEY 221853Z AUTO 15006KT 10SM CLR 28/02 A3017 RMK AO2 SLP182 T02830017
KGEY 221753Z AUTO VRB03KT 10SM CLR 26/01 A3019 RMK AO2 SLP192 T02560011 10261 20094 58012
KGEY 221653Z AUTO 00000KT 10SM CLR 23/02 A3020 RMK AO2 SLP195 T02330022
KGEY 221553Z AUTO 00000KT 10SM CLR 19/02 A3022 RMK AO2 SLP204 T01890022
KGEY 221453Z AUTO 00000KT 10SM CLR 15/04 A3023 RMK AO2 SLP209 T01500039 51008
KGEY 221353Z AUTO 00000KT 10SM CLR 11/03 A3023 RMK AO2 SLP211 T01110033
KGEY 221253Z AUTO 24003KT 10SM CLR 10/02 A3022 RMK AO2 SLP205 T01000017 $
KGEY 221153Z AUTO 00000KT 10SM CLR 11/01 A3020 RMK AO2 SLP198 T01060011 10189 20106 53005 $
KGEY 221053Z AUTO 00000KT 10SM CLR 12/02 A3019 RMK AO2 SLP194 T01170017 $
KGEY 220953Z AUTO 13003KT 10SM CLR 12/03 A3019 RMK AO2 SLP193 T01220033 $
KGEY 220853Z AUTO 13003KT 10SM CLR 13/02 A3019 RMK AO2 SLP192 T01330017 $
KGEY 220653Z AUTO 00000KT 10SM CLR 15/02 A3018 RMK AO2 SLP189 T01500017 403000122 $
KGEY 220553Z AUTO 20006KT 10SM CLR 17/01 A3017 RMK AO2 SLP189 T01670011 10294 20161 $
KGEY 220453Z AUTO VRB03KT 10SM 17/02 A3016 RMK AO2 SLP183 T01720022 $
KGEY 220353Z AUTO 31005KT 10SM CLR 22/00 A3015 RMK AO2 SLP180 T02170000 $
KGEY 220153Z AUTO 34008KT 10SM CLR 26/M01 A3011 RMK AO2 SLP165 T02611006 $
KGEY 220053Z AUTO 35010KT 10SM CLR 28/M02 A3010 RMK AO2 SLP162 T02831017 $
KGEY 212353Z AUTO 30005KT 10SM CLR 29/M03 A3010 RMK AO2 SLP161 T02891033 10300 20217 56007 $
KGEY 212253Z AUTO 10SM CLR 29/M03 A3011 RMK AO2 SLP162 T02941028 $
KGEY 212153Z AUTO 35006KT 10SM CLR 29/M02 A3011 RMK AO2 SLP160 T02891017 $
KGEY 212053Z AUTO VRB03KT 10SM CLR 28/M02 A3012 RMK AO2 SLP163 T02831017 $
KGEY 211953Z AUTO 35008KT 10SM CLR 27/00 A3014 RMK AO2 SLP169 T02720000 $
KGEY 211853Z AUTO 00000KT 10SM CLR 25/02 A3014 RMK AO2 SLP170 T02500017
KGEY 211753Z AUTO 00000KT 10SM CLR 22/02 A3014 RMK AO2 SLP171 T02170022 10228 20122 58002
KGEY 211653Z AUTO 07003KT 10SM CLR 22/02 A3015 RMK AO2 SLP174 T02220017
KGEY 211553Z AUTO 12003KT 10SM CLR 19/01 A3016 RMK AO2 SLP177 T01940011
KGEY 211453Z AUTO 14003KT 10SM CLR 17/03 A3015 RMK AO2 SLP176 T01720033 51016
KGEY 211353Z AUTO 13004KT 10SM CLR 15/04 A3014 RMK AO2 SLP172 T01500039
KGEY 211253Z AUTO 12005KT 10SM CLR 12/03 A3012 RMK AO2 SLP165 T01220033
KGEY 211153Z AUTO 13004KT 10SM CLR 12/03 A3010 RMK AO2 SLP157 T01220033 10217 20122 53014
KGEY 211053Z AUTO 12004KT 10SM CLR 13/04 A3008 RMK AO2 SLP151 T01280039